Terminal Aerodrome Forecast
Issued by NWS

Home | Current Version | Previous Version | Text Only | Print | Product List | Glossary Off
Versions: 1 2 3 4 5 6 7 8 9 10 11 12 13 14

000
FTUS43 KMPX 311121
TAFAXN
TAF
KAXN 311121Z 3112/0112 18012KT 6SM BR SCT010
     FM311400 19015G23KT P6SM SKC
     FM311700 20018G27KT P6SM SCT250
     FM312300 21007KT P6SM SCT120 BKN200
     FM010800 VRB04KT P6SM SCT070 OVC150=

USA.gov is the U.S. government's official web portal to all federal, state and local government web resources and services.